createdAt,value
2018-06-15T00:00:48.605Z,11.93
2018-06-15T00:01:48.451Z,11.93
2018-06-15T00:02:48.415Z,12.00
2018-06-15T00:03:48.304Z,11.95
2018-06-15T00:04:48.326Z,11.93
2018-06-15T00:05:48.144Z,11.90
2018-06-15T00:06:48.134Z,12.00
2018-06-15T00:07:47.998Z,12.00
2018-06-15T00:08:47.947Z,11.94
2018-06-15T00:09:47.844Z,11.98
2018-06-15T00:10:47.854Z,11.97
2018-06-15T00:11:47.692Z,11.97
2018-06-15T00:12:47.665Z,11.98
2018-06-15T00:13:47.539Z,11.86
2018-06-15T00:14:47.572Z,11.89
2018-06-15T00:15:47.388Z,11.86
2018-06-15T00:16:47.380Z,11.71
2018-06-15T00:17:47.238Z,11.68
2018-06-15T00:18:47.186Z,11.71
2018-06-15T00:19:47.081Z,11.71
2018-06-15T00:20:47.104Z,11.67
2018-06-15T00:21:46.931Z,11.64
2018-06-15T00:22:46.907Z,11.68
2018-06-15T00:23:46.781Z,11.67
2018-06-15T00:24:46.818Z,11.64
2018-06-15T00:25:46.630Z,11.56
2018-06-15T00:26:46.631Z,11.54
2018-06-15T00:27:46.477Z,11.59
2018-06-15T00:28:46.437Z,11.51
2018-06-15T00:29:46.323Z,11.53
2018-06-15T00:30:46.350Z,11.41
2018-06-15T00:31:46.171Z,11.50
2018-06-15T00:32:46.157Z,11.43
2018-06-15T00:33:46.020Z,11.42
2018-06-15T00:34:45.967Z,11.46
2018-06-15T00:35:45.869Z,11.49
2018-06-15T00:36:45.877Z,11.49
2018-06-15T00:37:45.720Z,11.39
2018-06-15T00:38:45.684Z,11.49
2018-06-15T00:39:45.562Z,11.51
2018-06-15T00:40:45.496Z,11.50
2018-06-15T00:41:45.412Z,11.56
2018-06-15T00:42:45.405Z,11.43
2018-06-15T00:43:45.265Z,11.42
2018-06-15T00:44:45.212Z,11.42
2018-06-15T00:45:45.117Z,11.38
2018-06-15T00:46:45.125Z,11.38
2018-06-15T00:47:44.954Z,11.31
2018-06-15T00:48:44.931Z,11.38
2018-06-15T00:49:44.798Z,11.29
2018-06-15T00:50:44.736Z,11.34
2018-06-15T00:51:44.650Z,11.08
2018-06-15T00:52:44.582Z,11.29
2018-06-15T00:53:44.498Z,11.26
2018-06-15T00:54:44.459Z,11.38
2018-06-15T00:55:44.343Z,11.28
2018-06-15T00:56:44.371Z,11.29
2018-06-15T00:57:44.192Z,11.31
2018-06-15T00:58:44.181Z,11.31
2018-06-15T00:59:44.041Z,11.32
2018-06-15T01:00:43.991Z,11.32
2018-06-15T01:01:43.886Z,11.31
2018-06-15T01:02:43.900Z,11.35
2018-06-15T01:03:43.733Z,11.32
2018-06-15T01:04:43.707Z,11.46
2018-06-15T01:05:43.580Z,11.42
2018-06-15T01:06:43.619Z,11.42
2018-06-15T01:07:43.430Z,11.39
2018-06-15T01:08:43.424Z,11.38
2018-06-15T01:09:43.276Z,11.36
2018-06-15T01:10:43.236Z,11.38
2018-06-15T01:11:43.129Z,11.36
2018-06-15T01:12:43.151Z,11.31
2018-06-15T01:13:42.973Z,11.31
2018-06-15T01:14:42.955Z,11.34
2018-06-15T01:15:42.821Z,11.36
2018-06-15T01:16:42.760Z,11.31
2018-06-15T01:17:42.661Z,11.31
2018-06-15T01:18:42.675Z,11.29
2018-06-15T01:19:42.516Z,11.35
2018-06-15T01:20:42.548Z,11.26
2018-06-15T01:21:42.360Z,11.16
2018-06-15T01:22:42.394Z,11.14
2018-06-15T01:23:42.209Z,11.08
2018-06-15T01:24:42.203Z,11.02
2018-06-15T01:25:42.053Z,11.00
2018-06-15T01:26:42.016Z,10.87
2018-06-15T01:27:41.900Z,10.92
2018-06-15T01:28:41.922Z,10.92
2018-06-15T01:29:41.750Z,10.85
2018-06-15T01:30:41.732Z,10.92
2018-06-15T01:31:41.597Z,10.92
2018-06-15T01:32:41.540Z,10.88
2018-06-15T01:33:41.443Z,10.87
2018-06-15T01:34:41.456Z,10.99
2018-06-15T01:35:41.291Z,10.88
2018-06-15T01:36:41.259Z,10.85
2018-06-15T01:37:41.136Z,10.88
2018-06-15T01:38:41.171Z,10.84
2018-06-15T01:39:40.995Z,10.87
2018-06-15T01:40:40.981Z,10.84
2018-06-15T01:41:40.834Z,10.88
2018-06-15T01:42:40.788Z,10.84
2018-06-15T01:43:40.675Z,10.87
2018-06-15T01:44:40.702Z,10.88
2018-06-15T01:45:40.525Z,10.84
2018-06-15T01:46:40.511Z,10.87
2018-06-15T01:47:40.372Z,10.87
2018-06-15T01:48:40.314Z,10.87
2018-06-15T01:49:40.217Z,10.91
2018-06-15T01:50:40.225Z,10.91
2018-06-15T01:51:40.066Z,10.95
2018-06-15T01:52:40.036Z,10.92
2018-06-15T01:53:39.913Z,10.91
2018-06-15T01:54:39.945Z,10.78
2018-06-15T01:55:39.759Z,10.63
2018-06-15T01:56:39.755Z,10.49
2018-06-15T01:57:39.605Z,10.46
2018-06-15T01:58:39.562Z,10.37
2018-06-15T01:59:39.451Z,10.25
2018-06-15T02:00:39.477Z,10.23
2018-06-15T02:01:39.299Z,10.23
2018-06-15T02:02:39.283Z,10.28
2018-06-15T02:03:39.144Z,10.11
2018-06-15T02:04:39.091Z,10.22
2018-06-15T02:05:38.997Z,10.23
2018-06-15T02:06:39.001Z,10.13
2018-06-15T02:07:38.837Z,10.26
2018-06-15T02:08:38.815Z,10.23
2018-06-15T02:09:38.716Z,10.22
2018-06-15T02:10:38.722Z,10.37
2018-06-15T02:11:38.539Z,10.34
2018-06-15T02:12:38.532Z,10.40
2018-06-15T02:13:38.378Z,10.25
2018-06-15T02:14:38.341Z,10.25
2018-06-15T02:15:38.222Z,10.26
2018-06-15T02:16:38.251Z,10.26
2018-06-15T02:17:38.071Z,10.25
2018-06-15T02:18:38.062Z,10.33
2018-06-15T02:19:37.926Z,10.23
2018-06-15T02:20:37.867Z,10.23
2018-06-15T02:21:37.766Z,10.23
2018-06-15T02:22:37.780Z,10.07
2018-06-15T02:23:37.611Z,10.21
2018-06-15T02:24:38.614Z,10.08
2018-06-15T02:25:37.465Z,10.07
2018-06-15T02:26:37.501Z,10.04
2018-06-15T02:27:37.303Z,10.10
2018-06-15T02:28:37.309Z,10.11
2018-06-15T02:29:37.147Z,10.06
2018-06-15T02:30:37.132Z,10.11
2018-06-15T02:31:36.995Z,10.04
2018-06-15T02:32:37.027Z,10.01
2018-06-15T02:33:36.841Z,10.08
2018-06-15T02:34:36.834Z,10.11
2018-06-15T02:35:36.691Z,10.11
2018-06-15T02:36:36.642Z,10.10
2018-06-15T02:37:36.528Z,10.08
2018-06-15T02:38:36.548Z,10.10
2018-06-15T02:39:36.379Z,10.08
2018-06-15T02:40:36.365Z,10.11
2018-06-15T02:41:36.222Z,10.13
2018-06-15T02:42:36.172Z,10.10
2018-06-15T02:43:36.075Z,10.18
2018-06-15T02:44:36.003Z,10.25
2018-06-15T02:45:35.918Z,10.22
2018-06-15T02:46:35.905Z,10.25
2018-06-15T02:47:35.760Z,10.33
2018-06-15T02:48:35.704Z,10.36
2018-06-15T02:49:35.612Z,10.40
2018-06-15T02:50:35.610Z,10.44
2018-06-15T02:51:35.458Z,10.46
2018-06-15T02:52:35.426Z,10.44
2018-06-15T02:53:35.305Z,10.49
2018-06-15T02:54:35.335Z,10.43
2018-06-15T02:55:35.154Z,10.47
2018-06-15T02:56:35.141Z,10.43
2018-06-15T02:57:35.002Z,10.47
2018-06-15T02:58:34.950Z,10.43
2018-06-15T02:59:34.835Z,10.40
2018-06-15T03:00:34.861Z,10.40
2018-06-15T03:01:34.689Z,10.44
2018-06-15T03:02:34.668Z,10.33
2018-06-15T03:03:34.540Z,10.36
2018-06-15T03:04:34.474Z,10.22
2018-06-15T03:05:34.382Z,10.23
2018-06-15T03:06:34.384Z,10.36
2018-06-15T03:07:34.226Z,10.40
2018-06-15T03:08:34.203Z,10.40
2018-06-15T03:09:34.063Z,10.40
2018-06-15T03:10:34.103Z,10.41
2018-06-15T03:11:33.921Z,10.44
2018-06-15T03:12:33.915Z,10.55
2018-06-15T03:13:33.761Z,10.55
2018-06-15T03:14:33.722Z,10.56
2018-06-15T03:15:33.609Z,10.58
2018-06-15T03:16:33.633Z,10.56
2018-06-15T03:17:33.453Z,10.63
2018-06-15T03:18:33.437Z,10.56
2018-06-15T03:19:33.302Z,10.59
2018-06-15T03:20:33.248Z,10.56
2018-06-15T03:21:33.152Z,10.59
2018-06-15T03:22:33.160Z,10.65
2018-06-15T03:23:32.995Z,10.66
2018-06-15T03:24:32.973Z,10.60
2018-06-15T03:25:32.834Z,10.66
2018-06-15T03:26:32.879Z,10.73
2018-06-15T03:27:32.691Z,10.66
2018-06-15T03:28:32.690Z,10.77
2018-06-15T03:29:32.531Z,10.81
2018-06-15T03:30:32.500Z,10.85
2018-06-15T03:31:32.393Z,10.87
2018-06-15T03:32:32.408Z,10.87
2018-06-15T03:33:32.222Z,10.92
2018-06-15T03:34:32.216Z,10.88
2018-06-15T03:35:32.067Z,10.92
2018-06-15T03:36:32.024Z,10.95
2018-06-15T03:37:31.959Z,10.99
2018-06-15T03:38:31.934Z,11.06
2018-06-15T03:39:31.761Z,10.95
2018-06-15T03:40:31.691Z,11.00
2018-06-15T03:41:31.603Z,10.96
2018-06-15T03:42:31.556Z,10.98
2018-06-15T03:43:31.450Z,10.93
2018-06-15T03:44:31.464Z,11.02
2018-06-15T03:45:31.301Z,10.95
2018-06-15T03:46:31.275Z,10.96
2018-06-15T03:47:31.145Z,10.95
2018-06-15T03:48:31.074Z,10.92
2018-06-15T03:49:30.990Z,10.98
2018-06-15T03:50:30.920Z,10.96
2018-06-15T03:51:30.854Z,11.02
2018-06-15T03:52:30.798Z,10.99
2018-06-15T03:53:30.686Z,10.99
2018-06-15T03:54:30.616Z,11.02
2018-06-15T03:55:30.533Z,10.98
2018-06-15T03:56:30.460Z,11.00
2018-06-15T03:57:30.379Z,10.91
2018-06-15T03:58:30.327Z,10.98
2018-06-15T03:59:30.222Z,10.83
2018-06-15T04:00:30.238Z,10.80
2018-06-15T04:01:30.066Z,10.92
2018-06-15T04:02:30.050Z,10.80
2018-06-15T04:03:29.910Z,10.78
2018-06-15T04:04:29.854Z,10.77
2018-06-15T04:05:29.764Z,10.77
2018-06-15T04:06:29.769Z,10.83
2018-06-15T04:07:29.609Z,10.83
2018-06-15T04:08:29.575Z,10.85
2018-06-15T04:09:29.454Z,10.85
2018-06-15T04:10:29.490Z,10.91
2018-06-15T04:11:29.299Z,10.91
2018-06-15T04:12:29.294Z,10.91
2018-06-15T04:13:29.145Z,10.92
2018-06-15T04:14:29.073Z,10.93
2018-06-15T04:15:28.992Z,10.91
2018-06-15T04:16:28.933Z,10.91
2018-06-15T04:17:28.838Z,10.88
2018-06-15T04:18:28.767Z,10.98
2018-06-15T04:19:28.690Z,10.93
2018-06-15T04:20:28.616Z,11.00
2018-06-15T04:21:28.539Z,11.00
2018-06-15T04:22:28.460Z,10.98
2018-06-15T04:23:28.375Z,10.99
2018-06-15T04:24:28.350Z,11.11
2018-06-15T04:25:28.220Z,11.13
2018-06-15T04:26:28.152Z,11.13
2018-06-15T04:27:28.068Z,11.10
2018-06-15T04:28:28.072Z,11.06
2018-06-15T04:29:27.921Z,11.13
2018-06-15T04:30:27.882Z,11.14
2018-06-15T04:31:27.761Z,11.14
2018-06-15T04:32:27.789Z,11.16
2018-06-15T04:33:27.607Z,11.20
2018-06-15T04:34:27.537Z,11.20
2018-06-15T04:35:27.457Z,11.16
2018-06-15T04:36:27.382Z,11.28
2018-06-15T04:37:27.356Z,11.26
2018-06-15T04:38:27.315Z,11.20
2018-06-15T04:39:27.146Z,11.29
2018-06-15T04:40:27.081Z,11.31
2018-06-15T04:41:26.992Z,11.36
2018-06-15T04:42:26.927Z,11.38
2018-06-15T04:43:26.840Z,11.31
2018-06-15T04:44:26.769Z,11.42
2018-06-15T04:45:26.687Z,11.42
2018-06-15T04:46:26.616Z,11.57
2018-06-15T04:47:26.531Z,11.64
2018-06-15T04:48:26.564Z,11.61
2018-06-15T04:49:26.378Z,11.72
2018-06-15T04:50:26.372Z,11.72
2018-06-15T04:51:26.227Z,11.86
2018-06-15T04:52:26.184Z,11.89
2018-06-15T04:53:26.074Z,11.86
2018-06-15T04:54:26.094Z,11.83
2018-06-15T04:55:25.918Z,11.98
2018-06-15T04:56:25.907Z,11.94
2018-06-15T04:57:25.764Z,11.86
2018-06-15T04:58:25.709Z,11.93
2018-06-15T04:59:25.615Z,11.93
2018-06-15T05:00:25.619Z,11.98
2018-06-15T05:01:25.465Z,11.97
2018-06-15T05:02:25.429Z,11.98
2018-06-15T05:03:25.306Z,11.94
2018-06-15T05:04:25.340Z,12.05
2018-06-15T05:05:25.154Z,11.95
2018-06-15T05:06:25.150Z,12.00
2018-06-15T05:07:24.999Z,12.06
2018-06-15T05:08:24.957Z,12.12
2018-06-15T05:09:24.847Z,12.08
2018-06-15T05:10:24.782Z,12.05
2018-06-15T05:11:24.701Z,12.06
2018-06-15T05:12:24.676Z,12.15
2018-06-15T05:13:24.545Z,12.15
2018-06-15T05:14:24.472Z,12.21
2018-06-15T05:15:24.392Z,12.13
2018-06-15T05:16:24.318Z,12.24
2018-06-15T05:17:24.234Z,12.31
2018-06-15T05:18:24.172Z,12.42
2018-06-15T05:19:24.085Z,12.48
2018-06-15T05:20:24.014Z,12.44
2018-06-15T05:21:23.928Z,12.53
2018-06-15T05:22:23.861Z,12.59
2018-06-15T05:23:23.779Z,12.66
2018-06-15T05:24:23.708Z,12.56
2018-06-15T05:25:23.620Z,12.63
2018-06-15T05:26:23.572Z,12.71
2018-06-15T05:27:23.471Z,12.67
2018-06-15T05:28:23.501Z,12.71
2018-06-15T05:29:23.322Z,12.79
2018-06-15T05:30:23.309Z,12.73
2018-06-15T05:31:23.163Z,12.81
2018-06-15T05:32:23.121Z,12.84
2018-06-15T05:33:23.012Z,12.89
2018-06-15T05:34:23.031Z,12.88
2018-06-15T05:35:22.897Z,13.00
2018-06-15T05:36:22.839Z,13.02
2018-06-15T05:37:22.710Z,13.06
2018-06-15T05:38:22.751Z,13.11
2018-06-15T05:39:22.565Z,13.15
2018-06-15T05:40:22.565Z,13.22
2018-06-15T05:41:22.414Z,13.24
2018-06-15T05:42:22.374Z,13.32
2018-06-15T05:43:22.248Z,13.38
2018-06-15T05:44:22.282Z,13.45
2018-06-15T05:45:22.101Z,13.38
2018-06-15T05:46:22.091Z,13.45
2018-06-15T05:47:21.942Z,13.59
2018-06-15T05:48:21.899Z,13.63
2018-06-15T05:49:21.816Z,13.70
2018-06-15T05:50:21.813Z,13.77
2018-06-15T05:51:21.643Z,13.74
2018-06-15T05:52:21.617Z,13.98
2018-06-15T05:53:21.489Z,13.91
2018-06-15T05:54:21.419Z,14.03
2018-06-15T05:55:21.342Z,14.13
2018-06-15T05:56:21.342Z,14.17
2018-06-15T05:57:21.188Z,14.14
2018-06-15T05:58:21.111Z,14.21
2018-06-15T05:59:21.038Z,14.34
2018-06-15T06:00:21.065Z,14.36
2018-06-15T06:01:20.883Z,14.47
2018-06-15T06:02:20.810Z,14.42
2018-06-15T06:03:20.733Z,14.53
2018-06-15T06:04:20.683Z,14.57
2018-06-15T06:05:20.581Z,14.64
2018-06-15T06:06:20.591Z,14.65
2018-06-15T06:07:20.430Z,14.74
2018-06-15T06:08:20.398Z,14.83
2018-06-15T06:09:20.277Z,14.85
2018-06-15T06:10:20.313Z,14.90
2018-06-15T06:11:20.126Z,14.91
2018-06-15T06:12:20.122Z,15.03
2018-06-15T06:13:19.978Z,15.01
2018-06-15T06:14:19.927Z,15.06
2018-06-15T06:15:19.830Z,15.18
2018-06-15T06:16:19.837Z,15.20
2018-06-15T06:17:19.692Z,15.21
2018-06-15T06:18:19.661Z,15.28
2018-06-15T06:19:19.526Z,15.35
2018-06-15T06:20:19.560Z,15.45
2018-06-15T06:21:19.375Z,15.48
2018-06-15T06:22:19.367Z,15.43
2018-06-15T06:23:19.223Z,15.57
2018-06-15T06:24:19.149Z,15.61
2018-06-15T06:25:19.186Z,15.68
2018-06-15T06:26:19.004Z,15.75
2018-06-15T06:27:18.996Z,15.82
2018-06-15T06:28:18.850Z,15.75
2018-06-15T06:29:18.802Z,15.88
2018-06-15T06:30:18.701Z,15.94
2018-06-15T06:31:18.715Z,16.01
2018-06-15T06:32:18.549Z,16.01
2018-06-15T06:33:18.523Z,16.14
2018-06-15T06:34:18.405Z,16.10
2018-06-15T06:35:18.433Z,16.18
2018-06-15T06:36:18.255Z,16.22
2018-06-15T06:37:18.252Z,16.30
2018-06-15T06:38:18.111Z,16.35
2018-06-15T06:39:18.057Z,16.34
2018-06-15T06:40:17.951Z,16.29
2018-06-15T06:41:17.966Z,16.34
2018-06-15T06:42:17.809Z,16.34
2018-06-15T06:43:17.769Z,16.45
2018-06-15T06:44:17.659Z,16.44
2018-06-15T06:45:17.688Z,16.50
2018-06-15T06:46:17.506Z,16.60
2018-06-15T06:47:17.490Z,16.67
2018-06-15T06:48:17.360Z,16.75
2018-06-15T06:49:17.409Z,16.88
2018-06-15T06:50:17.215Z,17.00
2018-06-15T06:51:17.219Z,17.10
2018-06-15T06:52:17.063Z,17.05
2018-06-15T06:53:16.984Z,17.21
2018-06-15T06:54:17.030Z,17.21
2018-06-15T06:55:16.841Z,17.40
2018-06-15T06:56:16.839Z,17.30
2018-06-15T06:57:16.708Z,17.38
2018-06-15T06:58:16.650Z,17.53
2018-06-15T06:59:16.543Z,17.50
2018-06-15T07:00:16.561Z,17.55
2018-06-15T07:01:16.395Z,17.66
2018-06-15T07:02:16.369Z,17.71
2018-06-15T07:03:16.247Z,17.67
2018-06-15T07:04:16.280Z,17.70
2018-06-15T07:05:16.099Z,17.76
2018-06-15T07:06:16.106Z,17.79
2018-06-15T07:07:15.961Z,17.79
2018-06-15T07:08:16.004Z,17.84
2018-06-15T07:09:15.807Z,17.87
2018-06-15T07:10:15.809Z,17.92
2018-06-15T07:11:15.666Z,17.91
2018-06-15T07:12:15.619Z,18.03
2018-06-15T07:13:15.523Z,18.07
2018-06-15T07:14:15.533Z,18.07
2018-06-15T07:15:15.367Z,18.19
2018-06-15T07:16:15.340Z,18.09
2018-06-15T07:17:15.217Z,18.21
2018-06-15T07:18:15.253Z,18.16
2018-06-15T07:19:15.073Z,18.25
2018-06-15T07:20:15.057Z,18.24
2018-06-15T07:21:14.925Z,18.32
2018-06-15T07:22:14.850Z,18.35
2018-06-15T07:23:14.877Z,18.39
2018-06-15T07:24:14.717Z,18.43
2018-06-15T07:25:14.686Z,18.44
2018-06-15T07:26:14.560Z,18.53
2018-06-15T07:27:14.599Z,18.58
2018-06-15T07:28:14.424Z,18.57
2018-06-15T07:29:14.340Z,18.57
2018-06-15T07:30:14.312Z,18.58
2018-06-15T07:31:14.193Z,18.62
2018-06-15T07:32:14.223Z,18.79
2018-06-15T07:33:14.047Z,18.83
2018-06-15T07:34:14.030Z,18.80
2018-06-15T07:35:13.904Z,18.90
2018-06-15T07:36:14.311Z,18.95
2018-06-15T07:37:13.760Z,19.06
2018-06-15T07:38:13.749Z,19.05
2018-06-15T07:39:13.611Z,19.08
2018-06-15T07:40:13.560Z,19.05
2018-06-15T07:41:13.464Z,19.20
2018-06-15T07:42:13.473Z,19.23
2018-06-15T07:43:13.324Z,19.21
2018-06-15T07:44:13.248Z,19.35
2018-06-15T07:45:13.291Z,19.33
2018-06-15T07:46:13.170Z,19.36
2018-06-15T07:47:13.092Z,19.42
2018-06-15T07:48:12.958Z,19.45
2018-06-15T07:49:12.893Z,19.43
2018-06-15T07:50:12.815Z,19.45
2018-06-15T07:51:12.748Z,19.51
2018-06-15T07:52:12.721Z,19.43
2018-06-15T07:53:12.600Z,19.55
2018-06-15T07:54:12.640Z,19.58
2018-06-15T07:55:12.453Z,19.54
2018-06-15T07:56:12.380Z,19.60
2018-06-15T07:57:12.308Z,19.57
2018-06-15T07:58:12.355Z,19.63
2018-06-15T07:59:12.167Z,19.63
2018-06-15T08:00:12.163Z,19.64
2018-06-15T08:01:12.026Z,19.63
2018-06-15T08:02:12.076Z,19.60
2018-06-15T08:03:11.879Z,19.71
2018-06-15T08:04:12.571Z,19.80
2018-06-15T08:05:11.731Z,19.72
2018-06-15T08:06:11.695Z,19.83
2018-06-15T08:07:11.591Z,19.87
2018-06-15T08:08:11.612Z,19.91
2018-06-15T08:09:11.440Z,19.93
2018-06-15T08:10:11.497Z,19.98
2018-06-15T08:11:11.296Z,20.03
2018-06-15T08:12:11.324Z,20.10
2018-06-15T08:13:11.158Z,20.19
2018-06-15T08:14:11.083Z,20.20
2018-06-15T08:15:11.045Z,20.27
2018-06-15T08:16:10.941Z,20.40
2018-06-15T08:17:10.957Z,20.53
2018-06-15T08:18:10.798Z,20.54
2018-06-15T08:19:10.758Z,20.71
2018-06-15T08:20:10.654Z,20.65
2018-06-15T08:21:10.670Z,20.74
2018-06-15T08:22:10.513Z,20.69
2018-06-15T08:23:10.482Z,20.71
2018-06-15T08:24:10.373Z,20.82
2018-06-15T08:25:10.393Z,20.75
2018-06-15T08:26:10.227Z,20.89
2018-06-15T08:27:10.203Z,20.93
2018-06-15T08:28:10.085Z,21.05
2018-06-15T08:29:10.120Z,21.09
2018-06-15T08:30:09.940Z,21.23
2018-06-15T08:31:09.922Z,21.20
2018-06-15T08:32:09.799Z,21.38
2018-06-15T08:33:09.839Z,21.36
2018-06-15T08:34:09.656Z,21.42
2018-06-15T08:35:09.645Z,21.44
2018-06-15T08:36:09.520Z,21.54
2018-06-15T08:37:09.558Z,21.66
2018-06-15T08:38:09.374Z,21.86
2018-06-15T08:39:09.367Z,21.81
2018-06-15T08:40:09.228Z,21.98
2018-06-15T08:41:09.279Z,21.95
2018-06-15T08:42:09.095Z,21.92
2018-06-15T08:43:09.089Z,22.04
2018-06-15T08:44:08.958Z,21.97
2018-06-15T08:45:09.001Z,22.08
2018-06-15T08:46:08.814Z,22.10
2018-06-15T08:47:08.805Z,22.19
2018-06-15T08:48:08.668Z,22.13
2018-06-15T08:49:08.717Z,22.16
2018-06-15T08:50:08.532Z,22.08
2018-06-15T08:51:08.528Z,22.04
2018-06-15T08:52:08.392Z,22.04
2018-06-15T08:53:08.437Z,21.92
2018-06-15T08:54:08.250Z,22.04
2018-06-15T08:55:08.246Z,22.17
2018-06-15T08:56:08.120Z,22.30
2018-06-15T08:57:08.159Z,22.38
2018-06-15T08:58:07.975Z,22.49
2018-06-15T08:59:07.968Z,22.47
2018-06-15T09:00:07.828Z,22.47
2018-06-15T09:01:08.799Z,22.59
2018-06-15T09:02:07.695Z,22.75
2018-06-15T09:03:09.735Z,22.83
2018-06-15T09:04:07.554Z,22.94
2018-06-15T09:05:07.595Z,23.04
2018-06-15T09:06:07.415Z,22.96
2018-06-15T09:07:07.404Z,22.93
2018-06-15T09:08:07.282Z,23.08
2018-06-15T09:09:07.315Z,23.15
2018-06-15T09:10:07.145Z,23.17
2018-06-15T09:11:07.125Z,23.29
2018-06-15T09:12:06.996Z,23.29
2018-06-15T09:13:06.939Z,23.40
2018-06-15T09:14:06.863Z,23.37
2018-06-15T09:15:06.845Z,23.45
2018-06-15T09:16:06.725Z,23.48
2018-06-15T09:17:06.755Z,23.58
2018-06-15T09:18:06.647Z,23.58
2018-06-15T09:19:06.563Z,23.58
2018-06-15T09:20:06.447Z,23.63
2018-06-15T09:21:06.478Z,23.35
2018-06-15T09:22:06.312Z,23.17
2018-06-15T09:23:06.285Z,23.05
2018-06-15T09:24:06.172Z,22.84
2018-06-15T09:25:06.226Z,22.86
2018-06-15T09:26:06.037Z,22.84
2018-06-15T09:27:06.006Z,22.83
2018-06-15T09:28:05.901Z,23.07
2018-06-15T09:29:05.920Z,23.17
2018-06-15T09:30:05.770Z,23.38
2018-06-15T09:31:05.723Z,23.52
2018-06-15T09:32:05.631Z,23.61
2018-06-15T09:33:05.632Z,23.67
2018-06-15T09:34:05.493Z,23.82
2018-06-15T09:35:05.442Z,23.95
2018-06-15T09:36:05.355Z,23.98
2018-06-15T09:37:05.351Z,24.05
2018-06-15T09:38:05.225Z,24.19
2018-06-15T09:39:05.264Z,24.15
2018-06-15T09:40:05.083Z,24.02
2018-06-15T09:41:05.069Z,24.00
2018-06-15T09:42:04.955Z,23.80
2018-06-15T09:43:04.982Z,23.83
2018-06-15T09:44:04.808Z,23.74
2018-06-15T09:45:04.797Z,23.56
2018-06-15T09:46:04.671Z,23.61
2018-06-15T09:47:04.702Z,23.70
2018-06-15T09:48:04.538Z,23.82
2018-06-15T09:49:04.510Z,23.87
2018-06-15T09:50:04.403Z,23.92
2018-06-15T09:51:04.427Z,23.87
2018-06-15T09:52:04.268Z,23.97
2018-06-15T09:53:04.237Z,24.04
2018-06-15T09:54:04.135Z,23.86
2018-06-15T09:55:04.142Z,23.64
2018-06-15T09:56:04.003Z,23.61
2018-06-15T09:57:03.956Z,23.58
2018-06-15T09:58:03.862Z,23.53
2018-06-15T09:59:03.861Z,23.60
2018-06-15T10:00:03.730Z,23.50
2018-06-15T10:01:03.772Z,23.48
2018-06-15T10:02:03.589Z,23.50
2018-06-15T10:03:03.581Z,23.40
2018-06-15T10:04:03.453Z,23.35
2018-06-15T10:05:03.490Z,23.11
2018-06-15T10:06:03.319Z,22.83
2018-06-15T10:07:03.296Z,22.49
2018-06-15T10:08:03.177Z,22.26
2018-06-15T10:09:03.210Z,22.16
2018-06-15T10:10:03.045Z,22.07
2018-06-15T10:11:03.019Z,22.08
2018-06-15T10:12:02.910Z,22.05
2018-06-15T10:13:02.933Z,22.07
2018-06-15T10:14:02.773Z,22.26
2018-06-15T10:15:02.738Z,22.37
2018-06-15T10:16:02.635Z,22.47
2018-06-15T10:17:02.649Z,22.52
2018-06-15T10:18:02.502Z,22.63
2018-06-15T10:19:02.467Z,22.53
2018-06-15T10:20:02.366Z,22.57
2018-06-15T10:21:02.371Z,22.72
2018-06-15T10:22:02.227Z,22.59
2018-06-15T10:23:02.184Z,22.56
2018-06-15T10:24:02.092Z,22.67
2018-06-15T10:25:02.091Z,22.68
2018-06-15T10:26:01.955Z,22.90
2018-06-15T10:27:02.000Z,22.92
2018-06-15T10:28:01.822Z,22.97
2018-06-15T10:29:01.811Z,22.92
2018-06-15T10:30:01.682Z,22.92
2018-06-15T10:31:01.719Z,23.07
2018-06-15T10:32:01.549Z,23.14
2018-06-15T10:33:01.599Z,23.37
2018-06-15T10:34:01.416Z,23.27
2018-06-15T10:35:01.438Z,23.37
2018-06-15T10:36:01.276Z,23.53
2018-06-15T10:37:01.250Z,23.64
2018-06-15T10:38:01.138Z,23.68
2018-06-15T10:39:01.167Z,23.78
2018-06-15T10:40:01.004Z,23.85
2018-06-15T10:41:00.964Z,23.82
2018-06-15T10:42:00.868Z,23.74
2018-06-15T10:43:00.877Z,23.72
2018-06-15T10:44:00.741Z,23.72
2018-06-15T10:45:00.690Z,23.64
2018-06-15T10:46:00.604Z,23.75
2018-06-15T10:47:00.605Z,23.67
2018-06-15T10:48:00.469Z,23.71
2018-06-15T10:49:00.510Z,23.65
2018-06-15T10:50:00.327Z,23.61
2018-06-15T10:51:00.319Z,23.63
2018-06-15T10:52:00.192Z,23.58
2018-06-15T10:53:00.237Z,23.52
2018-06-15T10:54:00.055Z,23.50
2018-06-15T10:55:00.037Z,23.52
2018-06-15T10:55:59.923Z,23.61
2018-06-15T10:56:59.950Z,23.70
2018-06-15T10:57:59.787Z,23.80
2018-06-15T10:58:59.722Z,23.86
2018-06-15T10:59:59.647Z,23.90
2018-06-15T11:00:59.668Z,24.00
2018-06-15T11:01:59.514Z,24.02
2018-06-15T11:02:59.476Z,24.10
2018-06-15T11:03:59.373Z,24.27
2018-06-15T11:04:59.384Z,24.27
2018-06-15T11:05:59.241Z,24.53
2018-06-15T11:06:59.190Z,24.53
2018-06-15T11:07:59.104Z,24.47
2018-06-15T11:08:59.155Z,24.57
2018-06-15T11:09:58.975Z,24.71
2018-06-15T11:10:59.019Z,24.82
2018-06-15T11:11:58.834Z,24.85
2018-06-15T11:12:58.827Z,24.91
2018-06-15T11:13:58.701Z,25.00
2018-06-15T11:14:58.736Z,25.13
2018-06-15T11:15:58.566Z,25.05
2018-06-15T11:16:58.546Z,25.10
2018-06-15T11:17:58.436Z,25.20
2018-06-15T11:18:58.459Z,25.17
2018-06-15T11:19:58.320Z,25.22
2018-06-15T11:20:58.265Z,25.08
2018-06-15T11:21:58.162Z,24.93
2018-06-15T11:22:58.179Z,24.76
2018-06-15T11:23:58.026Z,24.73
2018-06-15T11:24:57.988Z,24.63
2018-06-15T11:25:57.895Z,24.64
2018-06-15T11:26:57.896Z,24.66
2018-06-15T11:27:57.762Z,24.90
2018-06-15T11:28:57.805Z,25.10
2018-06-15T11:29:57.628Z,25.27
2018-06-15T11:30:57.637Z,25.35
2018-06-15T11:31:57.605Z,25.56
2018-06-15T11:32:57.527Z,25.56
2018-06-15T11:33:57.366Z,25.72
2018-06-15T11:34:57.486Z,25.89
2018-06-15T11:35:57.225Z,25.92
2018-06-15T11:36:57.247Z,25.87
2018-06-15T11:37:57.099Z,25.77
2018-06-15T11:38:57.054Z,25.82
2018-06-15T11:39:56.964Z,25.79
2018-06-15T11:40:57.016Z,25.62
2018-06-15T11:41:56.833Z,25.60
2018-06-15T11:42:56.876Z,25.64
2018-06-15T11:43:56.697Z,25.64
2018-06-15T11:44:56.689Z,25.72
2018-06-15T11:45:56.566Z,25.82
2018-06-15T11:46:56.513Z,25.92
2018-06-15T11:47:56.502Z,26.12
2018-06-15T11:48:56.367Z,26.15
2018-06-15T11:49:56.412Z,26.23
2018-06-15T11:50:56.237Z,26.21
2018-06-15T11:51:56.222Z,26.24
2018-06-15T11:52:56.108Z,26.35
2018-06-15T11:53:56.133Z,26.47
2018-06-15T11:54:55.974Z,26.38
2018-06-15T11:55:55.950Z,26.38
2018-06-15T11:56:55.840Z,26.21
2018-06-15T11:57:55.858Z,26.08
2018-06-15T11:58:55.710Z,26.07
2018-06-15T11:59:55.665Z,25.92
2018-06-15T12:00:55.578Z,25.90
2018-06-15T12:01:55.572Z,25.79
2018-06-15T12:02:55.445Z,25.75
2018-06-15T12:03:55.481Z,25.68
2018-06-15T12:04:55.315Z,25.65
2018-06-15T12:05:55.291Z,25.67
2018-06-15T12:06:55.179Z,25.57
2018-06-15T12:07:55.247Z,25.41
2018-06-15T12:08:55.050Z,25.32
2018-06-15T12:09:55.010Z,25.19
2018-06-15T12:10:54.916Z,25.17
2018-06-15T12:11:54.921Z,25.10
2018-06-15T12:12:54.784Z,24.90
2018-06-15T12:13:54.834Z,24.69
2018-06-15T12:14:54.655Z,24.67
2018-06-15T12:15:54.642Z,24.62
2018-06-15T12:16:54.520Z,24.47
2018-06-15T12:17:54.555Z,24.59
2018-06-15T12:18:54.393Z,24.59
2018-06-15T12:19:54.364Z,24.60
2018-06-15T12:20:54.259Z,24.79
2018-06-15T12:21:54.272Z,25.01
2018-06-15T12:22:54.131Z,25.13
2018-06-15T12:23:54.080Z,25.04
2018-06-15T12:24:53.993Z,25.09
2018-06-15T12:25:53.933Z,25.04
2018-06-15T12:26:54.001Z,24.73
2018-06-15T12:27:53.795Z,24.57
2018-06-15T12:28:53.854Z,24.42
2018-06-15T12:29:53.668Z,24.57
2018-06-15T12:30:53.663Z,24.52
2018-06-15T12:31:53.532Z,24.60
2018-06-15T12:32:53.581Z,24.67
2018-06-15T12:33:53.401Z,24.69
2018-06-15T12:34:53.388Z,24.94
2018-06-15T12:35:53.270Z,25.01
2018-06-15T12:36:53.294Z,25.10
2018-06-15T12:37:53.151Z,25.27
2018-06-15T12:38:53.209Z,25.32
2018-06-15T12:39:53.010Z,25.41
2018-06-15T12:40:53.022Z,25.35
2018-06-15T12:41:52.875Z,25.35
2018-06-15T12:42:52.928Z,25.41
2018-06-15T12:43:52.745Z,25.41
2018-06-15T12:44:52.742Z,25.45
2018-06-15T12:45:52.684Z,25.56
2018-06-15T12:46:52.648Z,25.59
2018-06-15T12:47:52.481Z,25.52
2018-06-15T12:48:52.559Z,25.46
2018-06-15T12:49:52.356Z,25.42
2018-06-15T12:50:52.371Z,25.35
2018-06-15T12:51:52.223Z,25.30